首页
METAR-TAF:

METAR-TAF

机场 :

Cranbrook, 不列颠哥伦比亚, 加拿大

纬度: 49-37N, 经度: 115-47W, 海拔: 939米

当前天气观测

该预报发布于1小时和0分钟前的16:00 UTC
风速2节,风向多变
温度 4°C
湿度 48%
气压 1021 hPa
能見度: 40.2公里
少量云层高于16000英尺
多云层高于22000英尺

METAR: CYXC 091600Z VRB02KT 25SM FEW160 BKN220 04/M06 A3016 RMK AC4CI3 SLP234

时间: 11:00 (17:00 UTC)

预报

该预报发布于4小时和22分钟前的12:38 UTC
预报有效从09日的 13点(UTC)到 10日的 01点(UTC)
风速3节,风向多变
能見度: 10公里
散云层高于25000英尺
成为
从 09日的 22点(UTC)到 09日的 24点(UTC)
风速7节,风向

TAF: CYXC 091238Z 0913/1001 VRB03KT P6SM SCT250 BECMG 0922/0924 17007KT RMK NXT FCST BY 091900Z

超过4000个机场的气象观测和天气预报(METAR&TAF报告)。

可查询的气象台以黄色和红色小点在地图上表示。

将鼠标移到小点上方,可查看气象台名称。

然后点击查看天气观测和预报。

如需切换地图:点击带黑十字的绿色按钮放大地图;点击带横线的绿色按钮缩小地图;或者点击绿色箭头查看邻近地区的地图。


METAR-TAF: